createdAt,value
2022-09-22T00:01:01.262Z,99749.19
2022-09-22T00:02:05.338Z,99751.86
2022-09-22T00:03:09.738Z,99751.86
2022-09-22T00:04:13.791Z,99752.18
2022-09-22T00:05:19.357Z,99757.54
2022-09-22T00:06:26.464Z,99749.67
2022-09-22T00:07:30.398Z,99759.52
2022-09-22T00:08:36.516Z,99762.20
2022-09-22T00:09:52.992Z,99757.85
2022-09-22T00:25:31.092Z,99764.52
2022-09-22T00:26:36.909Z,99763.68
2022-09-22T00:27:40.771Z,99764.52
2022-09-22T00:28:46.508Z,99762.53
2022-09-22T00:29:50.799Z,99768.73
2022-09-22T00:30:54.716Z,99766.89
2022-09-22T00:32:01.187Z,99761.53
2022-09-22T00:33:04.111Z,99761.53
2022-09-22T00:34:09.949Z,99769.25
2022-09-22T00:35:13.854Z,99765.43
2022-09-22T00:36:20.512Z,99764.45
2022-09-22T00:37:24.386Z,99758.23
2022-09-22T00:38:28.393Z,99758.23
2022-09-22T00:39:32.303Z,99763.45
2022-09-22T00:40:37.018Z,99762.44
2022-09-22T00:41:44.831Z,99764.98
2022-09-22T00:42:48.823Z,99765.81
2022-09-22T00:44:11.792Z,99765.81
2022-09-22T00:45:15.713Z,99762.13
2022-09-22T00:46:22.742Z,99758.61
2022-09-22T00:47:38.639Z,99760.32
2022-09-22T00:48:45.476Z,99766.52
2022-09-22T00:50:16.248Z,99759.45
2022-09-22T00:51:23.125Z,99768.19
2022-09-22T00:52:40.495Z,99759.31
2022-09-22T00:53:47.835Z,99759.31
2022-09-22T00:54:54.686Z,99763.97
2022-09-22T00:56:04.457Z,99760.32
2022-09-22T00:57:17.234Z,99758.48
2022-09-22T00:58:24.095Z,99762.13
2022-09-22T00:59:28.195Z,99757.64
2022-09-22T01:00:32.254Z,99752.28
2022-09-22T01:01:36.349Z,99758.48
2022-09-22T01:02:40.665Z,99757.47
2022-09-22T01:03:44.650Z,99750.44
2022-09-22T01:04:51.411Z,99753.95
2022-09-22T01:05:58.242Z,99753.95
2022-09-22T01:07:05.285Z,99753.81
2022-09-22T01:08:11.067Z,99760.14
2022-09-22T01:09:16.068Z,99765.50
2022-09-22T01:10:19.970Z,99756.63
2022-09-22T01:11:26.267Z,99756.63
2022-09-22T01:12:32.167Z,99756.49
2022-09-22T01:13:41.463Z,99749.43
2022-09-22T01:15:12.641Z,99758.16
2022-09-22T01:16:32.208Z,99748.28
2022-09-22T01:17:44.709Z,99708.72
2022-09-22T01:19:09.559Z,99749.43
2022-09-22T01:20:43.505Z,99749.43
2022-09-22T01:22:10.887Z,99746.75
2022-09-22T01:23:39.120Z,99746.05
2022-09-22T01:24:47.295Z,99755.09
2022-09-22T01:25:56.936Z,99755.09
2022-09-22T01:27:09.078Z,99753.43
2022-09-22T01:28:47.658Z,99751.58
2022-09-22T01:30:06.407Z,99750.89
2022-09-22T01:31:16.018Z,99750.05
2022-09-22T01:32:25.863Z,99750.05
2022-09-22T01:33:49.118Z,99750.05
2022-09-22T01:34:56.002Z,99758.09
2022-09-22T01:36:24.030Z,99749.22
2022-09-22T01:37:41.274Z,99747.52
2022-09-22T01:39:04.555Z,99750.05
2022-09-22T01:40:12.290Z,99753.73
2022-09-22T01:41:23.585Z,99757.08
2022-09-22T01:42:36.664Z,99759.77
2022-09-22T01:43:46.382Z,99759.77
2022-09-22T01:44:56.357Z,99758.78
2022-09-22T01:46:03.525Z,99757.64
2022-09-22T01:47:13.336Z,99753.95
2022-09-22T01:48:28.986Z,99751.97
2022-09-22T01:49:36.195Z,99747.45
2022-09-22T01:50:49.166Z,99750.82
2022-09-22T01:51:58.800Z,99703.91
2022-09-22T01:53:05.750Z,99747.27
2022-09-22T01:54:17.023Z,99747.27
2022-09-22T01:55:27.993Z,99748.80
2022-09-22T01:56:35.040Z,99757.54
2022-09-22T01:57:56.678Z,99748.52
2022-09-22T01:59:08.965Z,99742.16
2022-09-22T02:00:11.098Z,99746.82
2022-09-22T02:03:06.861Z,99740.31
2022-09-22T02:04:16.166Z,99742.67
2022-09-22T02:05:23.150Z,99740.83
2022-09-22T02:06:36.067Z,99739.02
2022-09-22T02:07:43.121Z,99756.91
2022-09-22T02:09:02.060Z,99738.84
2022-09-22T02:10:12.266Z,99749.56
2022-09-22T02:11:17.159Z,99743.38
2022-09-22T02:12:23.077Z,99747.06
2022-09-22T02:13:26.805Z,99744.20
2022-09-22T02:14:31.627Z,99749.56
2022-09-22T02:15:35.700Z,99746.19
2022-09-22T02:16:39.904Z,99739.16
2022-09-22T02:17:43.891Z,99743.52
2022-09-22T02:19:12.322Z,99742.53
2022-09-22T02:20:09.210Z,99740.83
2022-09-22T02:21:14.524Z,99739.16
2022-09-22T02:22:18.405Z,99743.69
2022-09-22T02:23:22.407Z,99741.84
2022-09-22T02:24:35.519Z,99748.21
2022-09-22T02:25:41.736Z,99741.15
2022-09-22T02:26:45.805Z,99735.78
2022-09-22T02:27:52.911Z,99735.78
2022-09-22T02:29:02.598Z,99736.80
2022-09-22T02:30:09.553Z,99744.00
2022-09-22T02:31:20.387Z,99745.67
2022-09-22T02:32:24.487Z,99739.79
2022-09-22T02:33:34.858Z,99746.12
2022-09-22T02:34:36.653Z,99748.80
2022-09-22T02:35:42.576Z,99749.50
2022-09-22T02:36:55.289Z,99745.15
2022-09-22T02:38:11.043Z,99749.50
2022-09-22T02:39:22.392Z,99751.34
2022-09-22T02:40:32.263Z,99753.88
2022-09-22T02:41:44.927Z,99754.86
2022-09-22T02:43:20.436Z,99752.18
2022-09-22T02:44:36.232Z,99752.18
2022-09-22T02:46:01.048Z,99753.88
2022-09-22T02:47:24.376Z,99752.04
2022-09-22T02:48:39.811Z,99752.04
2022-09-22T02:49:45.910Z,99744.00
2022-09-22T02:50:50.532Z,99751.20
2022-09-22T02:51:55.057Z,99741.31
2022-09-22T02:53:04.447Z,99741.31
2022-09-22T02:54:08.469Z,99748.52
2022-09-22T02:55:14.346Z,99746.51
2022-09-22T02:56:18.516Z,99744.83
2022-09-22T02:57:32.284Z,99743.83
2022-09-22T02:58:58.449Z,99743.83
2022-09-22T03:02:26.480Z,99748.21
2022-09-22T03:02:45.426Z,99748.21
2022-09-22T03:03:49.357Z,99739.48
2022-09-22T03:04:53.295Z,99753.88
2022-09-22T03:05:57.293Z,99757.54
2022-09-22T03:07:01.249Z,99754.16
2022-09-22T03:08:05.340Z,99749.67
2022-09-22T03:09:09.219Z,99750.51
2022-09-22T03:10:13.275Z,99751.48
2022-09-22T03:11:17.217Z,99754.16
2022-09-22T03:12:21.129Z,99757.16
2022-09-22T03:13:25.048Z,99757.16
2022-09-22T03:14:29.002Z,99756.32
2022-09-22T03:15:35.100Z,99753.11
2022-09-22T03:16:40.418Z,99760.14
2022-09-22T03:17:44.374Z,99760.14
2022-09-22T03:18:48.368Z,99753.11
2022-09-22T03:19:52.303Z,99760.14
2022-09-22T03:20:56.329Z,99751.97
2022-09-22T03:22:00.370Z,99759.00
2022-09-22T03:23:04.325Z,99757.85
2022-09-22T03:24:08.382Z,99764.88
2022-09-22T03:25:12.557Z,99761.23
2022-09-22T03:26:16.645Z,99761.23
2022-09-22T03:27:20.508Z,99756.70
2022-09-22T03:28:24.646Z,99760.67
2022-09-22T03:29:28.514Z,99754.16
2022-09-22T03:30:32.654Z,99752.18
2022-09-22T03:31:38.233Z,99759.24
2022-09-22T03:32:42.400Z,99759.91
2022-09-22T03:33:50.531Z,99759.91
2022-09-22T03:34:51.989Z,99757.23
2022-09-22T03:35:55.978Z,99764.29
2022-09-22T03:37:00.022Z,99765.96
2022-09-22T03:38:06.071Z,99765.96
2022-09-22T03:39:09.659Z,99760.60
2022-09-22T03:40:14.208Z,99760.60
2022-09-22T03:41:18.537Z,99760.60
2022-09-22T03:42:24.114Z,99758.23
2022-09-22T03:43:28.102Z,99764.60
2022-09-22T03:44:31.967Z,99759.24
2022-09-22T03:45:44.729Z,99759.24
2022-09-22T03:46:58.846Z,99765.44
2022-09-22T03:48:08.028Z,99768.43
2022-09-22T03:49:29.781Z,99772.92
2022-09-22T03:50:24.029Z,99777.93
2022-09-22T03:51:28.488Z,99767.20
2022-09-22T03:52:35.336Z,99770.87
2022-09-22T03:53:39.266Z,99775.53
2022-09-22T03:54:45.354Z,99775.53
2022-09-22T03:55:49.676Z,99782.59
2022-09-22T03:56:53.756Z,99780.05
2022-09-22T03:57:57.638Z,99778.20
2022-09-22T03:59:01.713Z,99778.20
2022-09-22T04:00:07.148Z,99779.08
2022-09-22T04:01:11.629Z,99779.21
2022-09-22T04:02:15.617Z,99779.21
2022-09-22T04:03:19.729Z,99784.58
2022-09-22T04:04:23.639Z,99784.58
2022-09-22T04:05:27.641Z,99780.88
2022-09-22T04:06:31.649Z,99778.20
2022-09-22T04:07:35.793Z,99774.55
2022-09-22T04:08:39.918Z,99776.22
2022-09-22T04:09:43.780Z,99783.28
2022-09-22T04:10:47.840Z,99785.09
2022-09-22T04:11:51.757Z,99785.09
2022-09-22T04:12:55.634Z,99783.28
2022-09-22T04:13:59.642Z,99791.99
2022-09-22T04:15:04.043Z,99791.99
2022-09-22T04:16:08.099Z,99787.78
2022-09-22T04:17:11.980Z,99786.63
2022-09-22T04:18:15.989Z,99792.83
2022-09-22T04:19:19.930Z,99786.32
2022-09-22T04:20:23.903Z,99791.40
2022-09-22T04:21:27.868Z,99790.53
2022-09-22T04:22:31.746Z,99793.91
2022-09-22T04:23:37.603Z,99792.77
2022-09-22T04:24:41.591Z,99792.77
2022-09-22T04:25:45.484Z,99797.81
2022-09-22T04:27:15.280Z,99796.66
2022-09-22T04:27:54.987Z,99792.14
2022-09-22T04:28:58.910Z,99792.14
2022-09-22T04:30:02.838Z,99795.52
2022-09-22T04:31:07.500Z,99791.16
2022-09-22T04:32:11.472Z,99789.31
2022-09-22T04:33:17.402Z,99795.52
2022-09-22T04:34:21.348Z,99790.02
2022-09-22T04:35:25.308Z,99790.67
2022-09-22T04:36:29.306Z,99790.67
2022-09-22T04:37:33.248Z,99793.91
2022-09-22T04:38:37.163Z,99793.91
2022-09-22T04:39:41.110Z,99787.23
2022-09-22T04:40:46.083Z,99787.23
2022-09-22T04:41:50.189Z,99785.24
2022-09-22T04:42:54.239Z,99798.78
2022-09-22T04:43:58.407Z,99793.42
2022-09-22T04:45:02.295Z,99793.42
2022-09-22T04:46:06.458Z,99797.95
2022-09-22T04:47:10.433Z,99799.80
2022-09-22T04:48:15.357Z,99796.28
2022-09-22T04:49:19.670Z,99800.48
2022-09-22T04:50:24.080Z,99797.64
2022-09-22T04:51:28.001Z,99796.97
2022-09-22T04:52:31.854Z,99800.17
2022-09-22T04:53:35.782Z,99800.17
2022-09-22T04:54:39.663Z,99802.16
2022-09-22T04:55:45.167Z,99805.68
2022-09-22T04:56:52.370Z,99801.02
2022-09-22T04:58:01.250Z,99801.02
2022-09-22T04:59:05.508Z,99800.48
2022-09-22T05:00:19.165Z,99799.48
2022-09-22T05:01:20.578Z,99794.61
2022-09-22T05:02:24.524Z,99797.95
2022-09-22T05:03:28.403Z,99797.95
2022-09-22T05:04:32.390Z,99802.34
2022-09-22T05:05:36.967Z,99808.08
2022-09-22T05:06:40.996Z,99806.06
2022-09-22T05:07:46.885Z,99806.06
2022-09-22T05:08:50.742Z,99807.77
2022-09-22T05:09:54.833Z,99800.70
2022-09-22T05:10:58.796Z,99797.04
2022-09-22T05:12:02.777Z,99805.75
2022-09-22T05:13:06.642Z,99800.38
2022-09-22T05:14:10.593Z,99800.38
2022-09-22T05:15:16.548Z,99801.08
2022-09-22T05:16:22.552Z,99805.75
2022-09-22T05:17:30.481Z,99811.42
2022-09-22T05:18:42.721Z,99811.42
2022-09-22T05:19:46.732Z,99803.23
2022-09-22T05:20:50.651Z,99808.42
2022-09-22T05:21:54.587Z,99809.81
2022-09-22T05:22:58.749Z,99809.81
2022-09-22T05:24:03.072Z,99806.82
2022-09-22T05:25:09.286Z,99802.53
2022-09-22T05:26:13.477Z,99802.53
2022-09-22T05:27:19.556Z,99809.56
2022-09-22T05:28:23.440Z,99800.73
2022-09-22T05:29:28.128Z,99805.96
2022-09-22T05:30:32.352Z,99809.30
2022-09-22T05:31:37.993Z,99810.83
2022-09-22T05:32:46.961Z,99805.47
2022-09-22T05:34:03.844Z,99810.37
2022-09-22T05:35:07.997Z,99805.70
2022-09-22T05:36:12.362Z,99805.70
2022-09-22T05:37:16.380Z,99814.41
2022-09-22T05:38:20.584Z,99808.06
2022-09-22T05:39:42.989Z,99809.59
2022-09-22T05:40:47.785Z,99808.44
2022-09-22T05:42:14.536Z,99813.80
2022-09-22T05:43:16.040Z,99814.63
2022-09-22T05:44:19.941Z,99809.59
2022-09-22T05:45:25.620Z,99809.59
2022-09-22T05:47:33.857Z,99811.58
2022-09-22T05:47:37.192Z,99812.41
2022-09-22T05:48:41.067Z,99814.12
2022-09-22T05:49:45.074Z,99812.09
2022-09-22T05:50:49.580Z,99812.09
2022-09-22T05:51:53.611Z,99817.46
2022-09-22T05:53:05.845Z,99815.47
2022-09-22T05:54:09.789Z,99818.16
2022-09-22T05:55:14.561Z,99813.80
2022-09-22T05:56:18.703Z,99815.79
2022-09-22T05:57:22.604Z,99815.47
2022-09-22T05:58:26.721Z,99812.78
2022-09-22T05:59:30.603Z,99812.47
2022-09-22T06:00:35.015Z,99813.99
2022-09-22T06:01:38.988Z,99818.06
2022-09-22T06:02:44.872Z,99818.61
2022-09-22T06:03:48.881Z,99819.13
2022-09-22T06:04:53.847Z,99816.29
2022-09-22T06:05:57.819Z,99816.14
2022-09-22T06:07:01.772Z,99819.48
2022-09-22T06:08:07.488Z,99816.66
2022-09-22T06:09:11.384Z,99819.34
2022-09-22T06:10:16.212Z,99822.03
2022-09-22T06:11:20.200Z,99827.39
2022-09-22T06:12:24.248Z,99827.39
2022-09-22T06:13:28.143Z,99823.88
2022-09-22T06:14:32.068Z,99825.08
2022-09-22T06:15:36.625Z,99818.55
2022-09-22T06:16:40.662Z,99815.69
2022-09-22T06:17:44.649Z,99828.13
2022-09-22T06:18:48.909Z,99822.77
2022-09-22T06:19:52.817Z,99822.58
2022-09-22T06:20:57.006Z,99822.58
2022-09-22T06:22:00.976Z,99825.48
2022-09-22T06:23:05.264Z,99820.11
2022-09-22T06:24:09.141Z,99824.00
2022-09-22T06:25:15.718Z,99823.49
2022-09-22T06:26:20.144Z,99823.49
2022-09-22T06:27:24.151Z,99831.77
2022-09-22T06:28:28.118Z,99830.60
2022-09-22T06:29:32.076Z,99834.81
2022-09-22T06:30:39.461Z,99834.81
2022-09-22T06:31:45.384Z,99836.81
2022-09-22T06:32:52.409Z,99836.66
2022-09-22T06:33:56.540Z,99836.66
2022-09-22T06:35:02.358Z,99837.31
2022-09-22T06:36:07.276Z,99837.86
2022-09-22T06:37:13.946Z,99845.73
2022-09-22T06:38:18.052Z,99842.91
2022-09-22T06:39:22.566Z,99837.67
2022-09-22T06:40:34.650Z,99837.67
2022-09-22T06:41:40.042Z,99837.02
2022-09-22T06:42:46.208Z,99837.64
2022-09-22T06:43:50.202Z,99843.02
2022-09-22T06:44:54.244Z,99839.64
2022-09-22T06:46:02.151Z,99839.64
2022-09-22T06:47:09.512Z,99842.51
2022-09-22T06:48:14.980Z,99837.97
2022-09-22T06:49:22.355Z,99843.34
2022-09-22T06:50:30.591Z,99842.66
2022-09-22T06:51:36.790Z,99846.03
2022-09-22T06:52:40.712Z,99845.34
2022-09-22T06:53:46.614Z,99846.20
2022-09-22T06:54:54.097Z,99843.20
2022-09-22T06:56:01.068Z,99844.72
2022-09-22T06:57:06.355Z,99846.39
2022-09-22T06:58:12.030Z,99847.77
2022-09-22T06:59:18.056Z,99851.11
2022-09-22T07:00:26.384Z,99849.95
2022-09-22T07:01:32.036Z,99849.95
2022-09-22T07:02:36.022Z,99851.32
2022-09-22T07:03:42.954Z,99848.45
2022-09-22T07:04:47.465Z,99848.45
2022-09-22T07:05:57.390Z,99858.39
2022-09-22T07:07:03.507Z,99847.50
2022-09-22T07:08:07.357Z,99853.38
2022-09-22T07:09:13.813Z,99853.05
2022-09-22T07:10:19.359Z,99859.94
2022-09-22T07:11:23.217Z,99859.94
2022-09-22T07:12:27.138Z,99858.63
2022-09-22T07:13:32.724Z,99858.98
2022-09-22T07:14:38.236Z,99858.98
2022-09-22T07:15:42.163Z,99859.00
2022-09-22T07:16:46.215Z,99861.04
2022-09-22T07:17:52.491Z,99861.04
2022-09-22T07:19:01.481Z,99862.07
2022-09-22T07:20:05.782Z,99861.73
2022-09-22T07:21:15.062Z,99861.41
2022-09-22T07:22:19.073Z,99864.77
2022-09-22T07:23:46.212Z,99864.77
2022-09-22T07:24:49.289Z,99869.14
2022-09-22T07:25:55.890Z,99853.15
2022-09-22T07:26:59.963Z,99868.11
2022-09-22T07:28:04.055Z,99868.11
2022-09-22T07:29:13.059Z,99283.63
2022-09-22T07:31:49.246Z,99859.71
2022-09-22T07:33:05.708Z,99860.58
2022-09-22T07:34:05.174Z,99856.72
2022-09-22T07:35:24.490Z,99853.84
2022-09-22T07:36:22.439Z,99860.73
2022-09-22T07:37:28.341Z,99851.00
2022-09-22T07:38:35.468Z,99851.00
2022-09-22T07:39:48.593Z,99858.05
2022-09-22T07:40:57.979Z,99859.06
2022-09-22T07:42:16.759Z,99850.81
2022-09-22T07:43:15.612Z,99850.81
2022-09-22T07:44:22.760Z,99855.70
2022-09-22T07:45:32.060Z,99855.70
2022-09-22T07:46:44.400Z,99855.70
2022-09-22T07:47:51.626Z,99859.06
2022-09-22T07:50:24.566Z,99851.68
2022-09-22T07:50:44.534Z,99851.68
2022-09-22T07:51:31.880Z,99853.34
2022-09-22T07:52:56.067Z,99853.34
2022-09-22T07:54:09.646Z,99842.95
2022-09-22T07:55:25.347Z,99842.95
2022-09-22T07:56:30.927Z,99849.02
2022-09-22T07:57:37.761Z,99842.27
2022-09-22T07:58:47.508Z,99840.94
2022-09-22T07:59:52.968Z,99840.94
2022-09-22T08:00:57.000Z,99840.41
2022-09-22T08:02:02.280Z,99850.82
2022-09-22T08:03:07.994Z,99850.82
2022-09-22T08:14:14.046Z,99849.87
2022-09-22T08:15:34.544Z,99846.82
2022-09-22T08:16:39.823Z,99846.82
2022-09-22T08:17:43.522Z,99847.14
2022-09-22T08:22:17.207Z,99855.95
2022-09-22T08:22:41.316Z,99854.88
2022-09-22T08:23:49.111Z,99850.66
2022-09-22T08:26:25.987Z,99849.25
2022-09-22T08:27:44.897Z,99851.23
2022-09-22T08:28:59.239Z,99855.07
2022-09-22T08:30:14.001Z,99855.21
2022-09-22T08:36:32.126Z,99322.83
2022-09-22T08:37:39.187Z,99861.55
2022-09-22T08:38:46.271Z,99862.94
2022-09-22T08:39:51.727Z,99856.52
2022-09-22T08:41:17.515Z,99850.45
2022-09-22T08:42:25.927Z,99857.85
2022-09-22T08:43:38.909Z,99859.88
2022-09-22T08:46:14.369Z,99858.16
2022-09-22T08:47:44.255Z,99864.67
2022-09-22T08:49:15.366Z,99860.95
2022-09-22T08:50:06.500Z,99859.39
2022-09-22T08:51:09.384Z,99861.56
2022-09-22T08:52:45.767Z,99861.56
2022-09-22T08:55:23.868Z,99853.94
2022-09-22T08:56:48.617Z,99857.08
2022-09-22T09:16:04.519Z,99845.37
2022-09-22T09:17:15.814Z,99845.37
2022-09-22T09:18:27.072Z,99854.52
2022-09-22T09:19:48.872Z,99858.71
2022-09-22T09:20:57.154Z,99853.71
2022-09-22T09:22:21.568Z,99851.78
2022-09-22T09:25:21.836Z,99859.59
2022-09-22T09:27:11.422Z,99858.29
2022-09-22T09:27:35.765Z,99855.48
2022-09-22T09:28:27.660Z,99858.29
2022-09-22T09:31:14.385Z,99850.35
2022-09-22T09:32:23.805Z,99853.61
2022-09-22T09:33:41.917Z,99853.61
2022-09-22T09:34:49.530Z,99863.90
2022-09-22T09:37:08.693Z,99862.58
2022-09-22T09:38:19.140Z,99862.58
2022-09-22T09:39:36.499Z,99865.09
2022-09-22T09:40:58.243Z,99858.48
2022-09-22T09:41:52.681Z,99859.17
2022-09-22T09:43:03.250Z,99862.62
2022-09-22T09:44:23.901Z,99855.26
2022-09-22T09:45:27.622Z,99861.74
2022-09-22T09:46:36.199Z,99922.56
2022-09-22T09:48:02.757Z,99922.56
2022-09-22T09:49:12.668Z,99860.69
2022-09-22T09:50:17.345Z,99857.23
2022-09-22T09:51:22.772Z,99819.70
2022-09-22T09:52:27.829Z,99861.56
2022-09-22T09:53:46.166Z,99856.53
2022-09-22T09:54:50.256Z,99862.30
2022-09-22T09:55:54.458Z,99863.66
2022-09-22T09:57:11.781Z,99864.19
2022-09-22T09:58:15.832Z,99864.55
2022-09-22T09:59:22.672Z,99864.55
2022-09-22T10:00:26.805Z,99864.92
2022-09-22T10:01:31.916Z,99871.77
2022-09-22T10:02:51.048Z,99871.77
2022-09-22T10:03:56.505Z,99869.39
2022-09-22T10:05:05.597Z,99872.14
2022-09-22T10:06:14.665Z,99872.14
2022-09-22T10:07:27.362Z,99868.49
2022-09-22T10:08:36.751Z,99874.25
2022-09-22T10:09:42.997Z,99877.94
2022-09-22T10:10:48.112Z,99870.05
2022-09-22T10:12:02.659Z,99870.05
2022-09-22T10:13:16.039Z,99870.41
2022-09-22T10:14:20.474Z,99870.41
2022-09-22T10:15:26.765Z,99870.89
2022-09-22T10:16:34.629Z,99873.27
2022-09-22T10:17:43.201Z,99872.91
2022-09-22T10:18:51.629Z,99872.91
2022-09-22T10:19:55.922Z,99870.52
2022-09-22T10:21:08.893Z,99871.00
2022-09-22T10:22:21.651Z,99871.31
2022-09-22T10:23:27.533Z,99871.31
2022-09-22T10:24:34.407Z,99875.82
2022-09-22T10:25:59.131Z,99875.82
2022-09-22T10:28:16.116Z,99861.39
2022-09-22T10:29:25.528Z,99862.52
2022-09-22T10:30:37.365Z,99862.52
2022-09-22T10:31:50.612Z,99860.86
2022-09-22T10:32:48.575Z,99865.22
2022-09-22T10:34:00.584Z,99866.58
2022-09-22T10:35:28.500Z,99859.52
2022-09-22T10:36:33.473Z,99859.52
2022-09-22T10:37:37.458Z,99870.67
2022-09-22T10:38:43.551Z,99868.34
2022-09-22T10:39:56.619Z,99872.23
2022-09-22T10:41:17.109Z,99872.40
2022-09-22T10:42:39.243Z,99863.00
2022-09-22T10:43:54.652Z,99863.00
2022-09-22T10:45:07.258Z,99862.02
2022-09-22T10:46:29.653Z,99870.47
2022-09-22T10:47:45.240Z,99857.34
2022-09-22T10:48:57.730Z,99865.80
2022-09-22T10:50:20.964Z,99865.48
2022-09-22T10:52:01.881Z,99863.15
2022-09-22T10:53:37.310Z,99860.45
2022-09-22T10:55:18.826Z,99851.53
2022-09-22T10:56:30.131Z,99854.22
2022-09-22T10:57:55.018Z,99855.06
2022-09-22T10:59:07.402Z,99855.06
2022-09-22T11:00:17.743Z,99856.25
2022-09-22T11:01:36.663Z,99854.39
2022-09-22T11:03:15.385Z,99854.39
2022-09-22T11:04:37.443Z,99849.78
2022-09-22T11:05:59.292Z,99855.01
2022-09-22T11:07:27.120Z,99851.43
2022-09-22T11:08:50.376Z,99851.43
2022-09-22T11:10:00.086Z,99859.27
2022-09-22T11:11:23.724Z,99853.71
2022-09-22T11:12:44.622Z,99853.71
2022-09-22T11:14:00.301Z,99860.25
2022-09-22T11:15:29.962Z,99862.75
2022-09-22T11:16:39.779Z,99862.75
2022-09-22T11:18:07.870Z,99847.12
2022-09-22T11:19:20.694Z,99851.18
2022-09-22T11:20:29.559Z,99853.63
2022-09-22T11:21:42.271Z,99862.59
2022-09-22T11:23:10.259Z,99862.59
2022-09-22T11:24:48.693Z,99850.52
2022-09-22T11:26:14.994Z,99858.13
2022-09-22T11:27:40.019Z,99856.78
2022-09-22T11:29:03.461Z,99854.00
2022-09-22T11:30:20.747Z,99862.61
2022-09-22T11:31:45.989Z,99857.25
2022-09-22T11:32:55.881Z,99857.25
2022-09-22T11:34:02.858Z,99850.34
2022-09-22T11:35:19.835Z,99859.62
2022-09-22T11:36:31.289Z,99854.03
2022-09-22T11:37:56.951Z,99855.87
2022-09-22T11:39:09.871Z,99854.88
2022-09-22T11:40:41.196Z,99852.81
2022-09-22T11:42:06.335Z,99859.88
2022-09-22T11:43:31.439Z,99859.88
2022-09-22T11:44:38.328Z,99861.19
2022-09-22T11:46:17.903Z,99857.14
2022-09-22T11:47:36.216Z,99858.80
2022-09-22T11:48:58.070Z,99858.80
2022-09-22T11:50:24.044Z,99863.16
2022-09-22T11:51:36.201Z,99863.16
2022-09-22T11:52:43.099Z,99859.78
2022-09-22T11:53:55.722Z,99860.81
2022-09-22T11:55:29.896Z,99858.24
2022-09-22T11:56:39.864Z,99854.39
2022-09-22T11:57:46.737Z,99854.39
2022-09-22T11:58:52.467Z,99861.09
2022-09-22T11:59:59.444Z,99840.61
2022-09-22T12:01:13.070Z,99840.61
2022-09-22T12:02:33.663Z,99851.59
2022-09-22T12:03:46.488Z,99851.59
2022-09-22T12:04:59.672Z,99860.36
2022-09-22T12:06:06.987Z,99864.19
2022-09-22T12:07:18.131Z,99849.14
2022-09-22T12:08:26.502Z,99849.45
2022-09-22T12:09:43.752Z,99849.56
2022-09-22T12:10:48.208Z,99850.70
2022-09-22T12:11:55.334Z,99849.13
2022-09-22T12:12:59.541Z,99849.13
2022-09-22T12:14:04.704Z,99852.33
2022-09-22T12:15:11.587Z,99858.66
2022-09-22T12:16:24.456Z,99857.83
2022-09-22T12:17:30.139Z,99856.47
2022-09-22T12:18:54.864Z,99856.47
2022-09-22T12:20:13.465Z,99861.30
2022-09-22T12:21:29.332Z,99854.06
2022-09-22T12:22:43.695Z,99858.27
2022-09-22T12:23:51.392Z,99856.20
2022-09-22T12:24:55.752Z,99852.30
2022-09-22T12:26:02.619Z,99852.30
2022-09-22T12:27:15.176Z,99854.45
2022-09-22T12:28:28.036Z,99860.69
2022-09-22T12:29:32.141Z,99856.78
2022-09-22T12:30:36.311Z,99848.02
2022-09-22T12:31:42.725Z,99855.83
2022-09-22T12:32:49.605Z,99848.76
2022-09-22T12:33:56.670Z,99848.76
2022-09-22T12:35:02.942Z,99843.06
2022-09-22T12:36:07.536Z,99857.59
2022-09-22T12:37:24.616Z,99849.66
2022-09-22T12:38:28.989Z,99848.36
2022-09-22T12:39:33.552Z,99848.36
2022-09-22T12:40:37.930Z,99847.87
2022-09-22T12:42:05.013Z,99842.83
2022-09-22T12:43:14.439Z,99849.94
2022-09-22T12:44:21.495Z,99849.06
2022-09-22T12:45:40.617Z,99849.06
2022-09-22T12:46:45.262Z,99845.83
2022-09-22T12:47:53.838Z,99847.53
2022-09-22T12:48:57.833Z,99839.44
2022-09-22T12:50:04.893Z,99851.23
2022-09-22T12:51:30.423Z,99851.23
2022-09-22T12:52:43.264Z,99851.90
2022-09-22T12:54:51.431Z,99849.06
2022-09-22T12:55:58.400Z,99847.41
2022-09-22T12:57:08.720Z,99850.30
2022-09-22T12:58:23.184Z,99850.30
2022-09-22T12:59:40.528Z,99847.59
2022-09-22T13:00:44.887Z,99847.59
2022-09-22T13:01:53.565Z,99846.44
2022-09-22T13:02:57.829Z,99846.44
2022-09-22T13:04:13.304Z,99846.33
2022-09-22T13:05:29.136Z,99849.20
2022-09-22T13:06:36.037Z,99848.73
2022-09-22T13:07:41.917Z,99857.85
2022-09-22T13:08:54.671Z,99851.63
2022-09-22T13:10:23.934Z,99851.63
2022-09-22T13:12:03.674Z,99855.79
2022-09-22T13:13:11.266Z,99855.79
2022-09-22T13:14:50.783Z,99853.29
2022-09-22T13:15:57.252Z,99851.13
2022-09-22T13:17:04.212Z,99857.35
2022-09-22T13:18:11.083Z,99854.48
2022-09-22T13:19:14.960Z,99853.82
2022-09-22T13:20:22.258Z,99853.82
2022-09-22T13:21:32.201Z,99846.39
2022-09-22T13:22:38.836Z,99855.16
2022-09-22T13:23:57.663Z,99852.45
2022-09-22T13:25:04.570Z,99854.79
2022-09-22T13:26:13.612Z,99854.79
2022-09-22T13:27:17.514Z,99853.45
2022-09-22T13:28:25.322Z,99853.45
2022-09-22T13:29:29.297Z,99856.66
2022-09-22T13:30:36.155Z,99853.09
2022-09-22T13:31:46.058Z,99843.33
2022-09-22T13:32:52.045Z,99843.33
2022-09-22T13:33:56.004Z,99852.82
2022-09-22T13:34:59.872Z,99846.09
2022-09-22T13:36:15.608Z,99843.55
2022-09-22T13:37:22.702Z,99847.12
2022-09-22T13:38:28.145Z,99847.75
2022-09-22T13:39:37.343Z,99843.22
2022-09-22T13:40:47.078Z,99847.42
2022-09-22T13:41:54.145Z,99843.69
2022-09-22T13:43:03.504Z,99842.50
2022-09-22T13:44:15.776Z,99847.06
2022-09-22T13:45:21.590Z,99845.56
2022-09-22T13:46:34.468Z,99847.42
2022-09-22T13:47:38.855Z,99854.48
2022-09-22T13:48:42.791Z,99852.15
2022-09-22T13:49:49.630Z,99848.12
2022-09-22T13:50:56.949Z,99854.55
2022-09-22T13:52:09.355Z,99849.51
2022-09-22T13:53:16.217Z,99850.70
2022-09-22T13:54:23.066Z,99844.48
2022-09-22T13:55:36.220Z,99844.48
2022-09-22T13:56:40.206Z,99842.78
2022-09-22T13:57:44.304Z,99840.08
2022-09-22T13:58:51.444Z,99847.03
2022-09-22T13:59:57.997Z,99844.17
2022-09-22T14:01:13.056Z,99848.53
2022-09-22T14:02:12.780Z,99848.17
2022-09-22T14:03:19.129Z,99842.47
2022-09-22T14:04:26.144Z,99842.47
2022-09-22T14:05:32.749Z,99846.86
2022-09-22T14:06:37.110Z,99847.53
2022-09-22T14:08:00.878Z,99847.53
2022-09-22T14:08:49.160Z,99853.26
2022-09-22T14:09:54.533Z,99855.13
2022-09-22T14:11:00.305Z,99845.36
2022-09-22T14:12:06.677Z,99858.66
2022-09-22T14:13:38.930Z,99847.23
2022-09-22T14:14:44.605Z,99847.03
2022-09-22T14:15:48.777Z,99850.92
2022-09-22T14:17:05.345Z,99850.92
2022-09-22T14:18:12.284Z,99853.63
2022-09-22T14:19:38.548Z,99854.45
2022-09-22T14:20:45.310Z,99854.45
2022-09-22T14:21:52.360Z,99853.26
2022-09-22T14:22:56.218Z,99846.86
2022-09-22T14:24:01.075Z,99846.86
2022-09-22T14:25:05.623Z,99847.86
2022-09-22T14:26:34.135Z,99854.96
2022-09-22T14:27:43.828Z,99847.53
2022-09-22T14:28:48.146Z,99845.84
2022-09-22T14:29:54.419Z,99847.53
2022-09-22T14:31:01.574Z,99847.53
2022-09-22T14:32:36.738Z,99854.59
2022-09-22T14:33:42.805Z,99854.59
2022-09-22T14:34:58.614Z,99846.56
2022-09-22T14:36:05.346Z,99846.56
2022-09-22T14:37:15.043Z,99848.59
2022-09-22T14:38:21.453Z,99845.22
2022-09-22T14:39:32.231Z,99850.61
2022-09-22T14:40:35.968Z,99850.61